Time;durP1;ratioP1;P1;durP2;ratioP2;P2;SDS_P1;SDS_P2;PMS_P1;PMS_P2;Temp;Humidity;BMP_temperature;BMP_pressure;BME280_temperature;BME280_humidity;BME280_pressure;Samples;Min_cycle;Max_cycle;Signal;HPM_P1;HPM_P2
2021/03/13 00:00:19;;;;;;;4.50;4.10;;;5.90;81.80;7.00;99612.00;;;;4880156;29;20511;-85
2021/03/13 00:02:50;;;;;;;5.00;4.50;;;5.90;81.90;217.30;159619.00;;;;4879738;29;20532;-85
2021/03/13 00:05:23;;;;;;;5.15;4.38;;;6.00;81.50;6.90;99598.00;;;;4893999;29;20433;-87
2021/03/13 00:07:51;;;;;;;4.82;4.32;;;5.90;81.70;52.70;159651.00;;;;4899488;29;21042;-85
2021/03/13 00:10:20;;;;;;;4.78;4.10;;;5.90;81.50;6.90;99595.00;;;;4890384;29;20500;-85
2021/03/13 00:12:47;;;;;;;4.78;4.00;;;6.00;81.30;6.90;99607.00;;;;4905719;29;20862;-86
2021/03/13 00:15:15;;;;;;;4.50;4.00;;;6.00;81.00;7.10;99593.00;;;;4906126;29;20938;-84
2021/03/13 00:17:45;;;;;;;4.30;3.90;;;6.00;81.60;7.20;99600.00;;;;4888500;29;20433;-84
2021/03/13 00:20:16;;;;;;;4.43;4.03;;;6.00;81.40;7.30;67870.00;;;;4898916;29;21344;-84
2021/03/13 00:22:44;;;;;;;4.40;4.00;;;6.10;81.50;7.30;99588.00;;;;4896010;29;20436;-85
2021/03/13 00:25:13;;;;;;;4.75;4.00;;;6.20;81.10;7.40;99586.00;;;;4879548;29;21072;-83
2021/03/13 00:27:47;;;;;;;5.40;3.95;;;6.20;81.20;7.40;99576.00;;;;4892725;29;20433;-83
2021/03/13 00:30:19;;;;;;;4.72;4.10;;;6.20;80.60;7.40;99588.00;;;;4877557;29;20452;-82
2021/03/13 00:32:49;;;;;;;5.28;4.20;;;6.20;80.20;7.30;99572.00;;;;4892023;29;20449;-81
2021/03/13 00:35:18;;;;;;;4.97;4.10;;;6.30;80.50;7.20;99577.00;;;;4896470;29;20456;-83
2021/03/13 00:37:46;;;;;;;4.15;3.75;;;6.20;81.30;7.30;99582.00;;;;4911226;28;20435;-85
2021/03/13 00:40:17;;;;;;;4.65;3.40;;;6.20;82.10;7.30;99577.00;;;;4900393;29;20480;-82
2021/03/13 00:42:45;;;;;;;4.10;3.70;;;6.20;82.10;7.40;99581.00;;;;4911606;28;20444;-83
2021/03/13 00:45:16;;;;;;;4.70;3.63;;;6.30;82.50;7.40;99561.00;;;;4900896;29;20447;-80
2021/03/13 00:47:44;;;;;;;3.85;3.30;;;6.30;82.40;7.40;67907.00;;;;4904423;29;20512;-80
2021/03/13 00:50:15;;;;;;;4.40;3.13;;;6.30;82.60;7.40;99557.00;;;;4903785;29;20507;-80
2021/03/13 00:52:44;;;;;;;3.40;3.10;;;6.40;82.10;7.40;67907.00;;;;4901599;29;20433;-80
2021/03/13 00:55:13;;;;;;;4.00;2.90;;;6.50;82.20;7.40;67894.00;;;;4884363;29;20448;-80
2021/03/13 00:57:44;;;;;;;4.05;2.40;;;6.50;81.70;7.40;99541.00;;;;4897140;29;20425;-80
2021/03/13 01:00:20;;;;;;;2.58;2.38;;;6.50;81.50;7.40;99525.00;;;;4900276;29;20492;-81
2021/03/13 01:02:48;;;;;;;3.58;2.38;;;6.60;81.30;7.40;99535.00;;;;4880971;29;20550;-81
2021/03/13 01:05:16;;;;;;;2.55;1.98;;;6.60;81.40;7.40;99521.00;;;;4883290;29;20708;-82
2021/03/13 01:07:47;;;;;;;2.70;1.70;;;6.60;80.80;7.50;99517.00;;;;4894214;29;20452;-83
2021/03/13 01:10:21;;;;;;;2.40;1.95;;;6.60;80.80;7.40;67901.00;;;;4878343;29;20464;-83
2021/03/13 01:12:49;;;;;;;2.75;1.60;;;6.70;80.60;217.30;159871.00;;;;4884897;29;20524;-82
2021/03/13 01:15:20;;;;;;;2.80;1.80;;;6.70;80.60;217.30;159871.00;;;;4897690;29;20516;-82
2021/03/13 01:17:51;;;;;;;2.22;1.80;;;6.80;80.50;7.50;99491.00;;;;4881303;29;20598;-82
2021/03/13 01:20:20;;;;;;;3.30;1.90;;;6.80;80.90;7.50;99502.00;;;;4879760;29;20744;-82
2021/03/13 01:22:49;;;;;;;3.50;1.80;;;6.80;80.80;7.60;99507.00;;;;4885957;29;20436;-83
2021/03/13 01:25:18;;;;;;;2.30;1.70;;;6.80;80.40;7.50;99481.00;;;;4904046;29;20448;-82
2021/03/13 01:27:46;;;;;;;3.42;1.80;;;6.90;79.80;7.50;99485.00;;;;4889306;29;20432;-82
2021/03/13 01:30:19;;;;;;;3.42;2.00;;;6.80;79.80;7.50;99485.00;;;;4891657;29;20435;-81
2021/03/13 01:32:46;;;;;;;2.15;1.63;;;6.80;80.00;7.50;99488.00;;;;4895380;29;21366;-82
2021/03/13 01:35:14;;;;;;;2.35;1.58;;;6.90;80.00;7.50;67927.00;;;;4876042;29;20961;-81
2021/03/13 01:37:42;;;;;;;3.50;1.63;;;6.90;80.00;7.60;99477.00;;;;4875206;29;20485;-83
2021/03/13 01:40:15;;;;;;;3.58;1.70;;;7.00;80.00;7.60;99473.00;;;;4892046;29;20441;-83
2021/03/13 01:42:43;;;;;;;1.98;1.55;;;6.90;79.70;7.50;99471.00;;;;4891470;29;20447;-83
2021/03/13 01:45:16;;;;;;;3.20;1.70;;;6.90;79.60;7.40;67913.00;;;;4891755;29;20443;-84
2021/03/13 01:47:45;;;;;;;2.95;2.20;;;6.80;80.70;7.50;99476.00;;;;4893254;29;20444;-83
2021/03/13 01:50:19;;;;;;;3.60;1.73;;;6.80;80.70;7.50;99461.00;;;;4877127;29;20465;-83
2021/03/13 01:52:50;;;;;;;3.25;1.80;;;6.80;80.30;7.50;99448.00;;;;4889792;29;20448;-82
2021/03/13 01:55:20;;;;;;;3.10;1.80;;;6.90;80.40;7.50;99458.00;;;;4908649;29;20425;-83
2021/03/13 01:57:54;;;;;;;2.58;1.80;;;6.90;80.10;7.50;99449.00;;;;4906936;29;20452;-83
2021/03/13 02:00:27;;;;;;;2.20;1.80;;;6.90;79.40;7.50;99450.00;;;;4883283;29;20440;-83
2021/03/13 02:02:58;;;;;;;2.75;1.90;;;6.90;79.00;7.50;99423.00;;;;4876975;29;20440;-84
2021/03/13 02:05:29;;;;;;;3.15;2.00;;;6.90;79.90;7.50;99426.00;;;;4875497;29;20449;-83
2021/03/13 02:08:10;;;;;;;2.60;1.70;;;6.90;78.90;7.50;99430.00;;;;4871401;29;20447;-82
2021/03/13 02:10:53;;;;;;;3.23;1.80;;;6.90;79.10;7.60;99389.00;;;;4891460;29;20500;-83
2021/03/13 02:13:28;;;;;;;2.80;1.83;;;6.90;79.20;7.50;99403.00;;;;4889580;29;20473;-82
2021/03/13 02:16:21;;;;;;;2.65;2.00;;;7.00;79.30;7.60;99406.00;;;;4890081;29;20437;-84
2021/03/13 02:19:06;;;;;;;2.55;2.00;;;7.00;78.60;7.60;99389.00;;;;4875778;29;20437;-82
2021/03/13 02:21:38;;;;;;;3.70;2.10;;;7.00;78.90;7.70;99384.00;;;;4871239;29;21002;-84
2021/03/13 02:24:37;;;;;;;2.90;1.90;;;7.10;79.00;7.70;99379.00;;;;4905450;28;20453;-83
2021/03/13 02:27:13;;;;;;;3.25;2.20;;;7.10;78.60;7.70;99383.00;;;;4896307;29;20452;-82
2021/03/13 02:29:52;;;;;;;4.40;2.10;;;7.10;78.70;7.80;99391.00;;;;4896142;29;20455;-83
2021/03/13 02:32:43;;;;;;;3.33;2.00;;;7.10;78.60;7.80;99373.00;;;;4903182;29;20440;-83
2021/03/13 02:35:15;;;;;;;2.70;1.73;;;7.10;79.00;7.80;99367.00;;;;4906736;29;20434;-85
2021/03/13 02:37:52;;;;;;;3.05;1.90;;;7.10;79.10;7.80;99374.00;;;;4895077;29;20515;-84
2021/03/13 02:40:26;;;;;;;2.63;1.70;;;7.10;79.00;7.80;99372.00;;;;4897345;29;20463;-84
2021/03/13 02:42:56;;;;;;;2.60;1.60;;;7.20;79.10;7.80;99363.00;;;;4894589;29;20443;-84
2021/03/13 02:45:27;;;;;;;2.58;1.70;;;7.20;79.30;7.80;99349.00;;;;4878998;29;20777;-82
2021/03/13 02:47:56;;;;;;;2.60;1.70;;;7.20;79.60;7.80;99344.00;;;;4876412;29;20952;-82
2021/03/13 02:50:27;;;;;;;3.35;1.70;;;7.10;79.40;7.70;99342.00;;;;4894986;29;20468;-84
2021/03/13 02:53:02;;;;;;;3.40;1.80;;;7.10;79.60;7.70;99334.00;;;;4898032;29;20436;-81
2021/03/13 02:55:31;;;;;;;3.00;1.60;;;7.20;80.30;7.70;99334.00;;;;4911974;28;20440;-79
2021/03/13 02:58:02;;;;;;;3.78;1.50;;;7.10;80.40;217.30;159966.00;;;;4912286;28;20432;-81
2021/03/13 03:00:35;;;;;;;2.30;1.80;;;7.00;80.90;7.60;67936.00;;;;4909320;29;20437;-79
2021/03/13 03:03:06;;;;;;;4.18;2.13;;;7.00;81.10;7.50;99319.00;;;;4910876;28;20428;-80
2021/03/13 03:05:55;;;;;;;2.65;1.48;;;6.90;81.40;7.50;99306.00;;;;4914342;28;20427;-81
2021/03/13 03:08:25;;;;;;;3.38;1.60;;;6.90;81.80;7.40;99317.00;;;;4913987;28;20456;-81
2021/03/13 03:10:54;;;;;;;3.33;1.50;;;6.90;82.10;7.50;99294.00;;;;4901128;29;20436;-80
2021/03/13 03:13:25;;;;;;;3.72;1.80;;;6.80;82.40;7.40;99290.00;;;;4896664;29;20447;-82
2021/03/13 03:15:54;;;;;;;2.80;1.60;;;6.80;83.10;7.40;99294.00;;;;4908119;28;20424;-80
2021/03/13 03:18:26;;;;;;;4.30;1.50;;;6.80;83.60;7.40;99285.00;;;;4913125;28;20477;-82
2021/03/13 03:20:56;;;;;;;4.05;1.80;;;6.80;83.60;7.40;99289.00;;;;4881874;29;20447;-82
2021/03/13 03:23:24;;;;;;;3.55;1.70;;;6.80;84.30;7.40;99278.00;;;;4895558;29;20440;-81
2021/03/13 03:25:53;;;;;;;4.18;1.80;;;6.70;84.30;7.40;99275.00;;;;4892918;29;20448;-82
2021/03/13 03:28:21;;;;;;;3.15;1.63;;;6.80;85.00;7.30;99263.00;;;;4891838;29;20904;-82
2021/03/13 03:31:05;;;;;;;2.83;1.92;;;6.80;85.00;7.40;99267.00;;;;4878336;29;20446;-80
2021/03/13 03:33:34;;;;;;;4.22;2.10;;;6.70;84.90;7.40;99261.00;;;;4892848;29;20536;-81
2021/03/13 03:36:07;;;;;;;3.28;2.00;;;6.80;85.00;7.40;99255.00;;;;4893587;29;20448;-82
2021/03/13 03:38:36;;;;;;;3.75;2.03;;;6.80;85.00;7.40;67901.00;;;;4891789;29;20442;-82
2021/03/13 03:41:05;;;;;;;2.88;1.83;;;6.90;85.00;7.50;99248.00;;;;4891807;29;21073;-82
2021/03/13 03:43:39;;;;;;;2.25;1.60;;;7.00;84.60;7.50;99236.00;;;;4892286;29;20442;-82
2021/03/13 03:46:11;;;;;;;3.03;1.75;;;6.90;84.50;7.50;67924.00;;;;4892338;29;20444;-81
2021/03/13 03:48:39;;;;;;;3.60;1.90;;;6.90;84.40;52.70;159925.00;;;;4877920;29;21013;-82
2021/03/13 03:51:15;;;;;;;3.95;2.00;;;6.90;84.40;7.60;99251.00;;;;4885882;29;20433;-83
2021/03/13 03:53:51;;;;;;;2.47;1.90;;;6.90;84.30;7.60;99224.00;;;;4886575;29;20443;-83
2021/03/13 03:56:20;;;;;;;3.50;1.90;;;7.00;84.10;7.60;99229.00;;;;4887887;29;20500;-84
2021/03/13 03:58:49;;;;;;;3.05;1.73;;;7.00;83.60;7.60;99238.00;;;;4880919;29;20443;-84
2021/03/13 04:01:21;;;;;;;2.80;1.90;;;7.00;83.40;7.70;99227.00;;;;4890852;29;20440;-84
2021/03/13 04:03:51;;;;;;;2.85;1.90;;;7.10;83.50;7.70;99225.00;;;;4875958;29;20898;-84
2021/03/13 04:06:20;;;;;;;3.03;1.80;;;7.10;83.40;7.70;99220.00;;;;4875393;29;20444;-84
2021/03/13 04:08:52;;;;;;;2.60;1.90;;;7.00;83.90;7.70;99216.00;;;;4889724;29;20488;-84
2021/03/13 04:11:22;;;;;;;5.38;2.30;;;7.00;84.30;7.60;99219.00;;;;4889422;29;20445;-84
2021/03/13 04:13:52;;;;;;;5.00;2.20;;;7.00;84.90;7.60;99211.00;;;;4874640;29;21064;-84
2021/03/13 04:16:22;;;;;;;2.78;1.92;;;7.00;85.20;7.60;99209.00;;;;4873735;29;20444;-84
2021/03/13 04:18:50;;;;;;;4.20;2.15;;;7.00;85.20;7.60;99217.00;;;;4890218;29;20447;-84
2021/03/13 04:21:19;;;;;;;4.15;2.20;;;7.00;85.50;7.60;99198.00;;;;4875671;29;20435;-84
2021/03/13 04:23:48;;;;;;;4.07;2.17;;;7.00;85.20;7.60;99214.00;;;;4874642;29;20448;-84
2021/03/13 04:26:18;;;;;;;4.10;2.22;;;7.00;85.70;7.60;99213.00;;;;4877240;29;20437;-84
2021/03/13 04:28:46;;;;;;;6.15;2.30;;;7.00;85.80;7.60;99204.00;;;;4889741;29;20440;-83
2021/03/13 04:31:15;;;;;;;4.30;2.08;;;7.00;85.70;7.60;99214.00;;;;4877830;29;20446;-82
2021/03/13 04:33:44;;;;;;;4.43;2.00;;;7.00;85.80;7.60;99200.00;;;;4879926;29;20484;-82
2021/03/13 04:36:12;;;;;;;3.20;1.80;;;7.00;86.10;7.60;99199.00;;;;4898123;29;20439;-85
2021/03/13 04:38:44;;;;;;;4.47;2.20;;;7.00;86.40;7.60;67936.00;;;;4892466;29;20437;-83
2021/03/13 04:41:13;;;;;;;2.80;1.65;;;7.00;87.00;7.60;99196.00;;;;4886970;29;20500;-83
2021/03/13 04:43:41;;;;;;;3.33;1.88;;;7.00;87.20;7.60;99186.00;;;;4893090;29;20440;-82
2021/03/13 04:46:10;;;;;;;3.28;1.80;;;7.00;87.40;7.60;99164.00;;;;4876071;29;20440;-82
2021/03/13 04:48:38;;;;;;;3.70;1.80;;;7.00;87.30;52.70;159915.00;;;;4875919;29;20444;-83
2021/03/13 04:51:07;;;;;;;2.55;1.90;;;7.00;87.80;7.50;99165.00;;;;4873325;29;20532;-83
2021/03/13 04:53:35;;;;;;;4.60;2.10;;;7.00;88.00;7.50;99153.00;;;;4891152;29;20436;-83
2021/03/13 04:56:03;;;;;;;4.05;1.75;;;7.00;88.20;7.60;99139.00;;;;4876704;29;20440;-83
2021/03/13 04:58:31;;;;;;;5.22;2.00;;;7.00;87.90;7.50;67919.00;;;;4889373;29;20433;-83
2021/03/13 05:00:58;;;;;;;3.85;1.77;;;6.90;87.80;7.50;99152.00;;;;4874877;29;20447;-82
2021/03/13 05:03:38;;;;;;;6.50;1.97;;;6.90;88.30;7.50;99150.00;;;;4891818;29;20196;-82
2021/03/13 05:06:07;;;;;;;2.88;1.75;;;6.80;88.60;217.30;159925.00;;;;4875154;29;20440;-83
2021/03/13 05:08:37;;;;;;;3.53;1.80;;;6.90;88.60;7.50;99138.00;;;;4880231;29;20448;-82
2021/03/13 05:11:04;;;;;;;3.40;1.50;;;6.90;88.40;52.70;159915.00;;;;4889426;29;20451;-82
2021/03/13 05:13:32;;;;;;;4.05;1.80;;;6.90;88.30;7.50;99112.00;;;;4876699;29;20441;-83
2021/03/13 05:16:00;;;;;;;3.20;1.48;;;6.90;87.70;7.50;99110.00;;;;4888043;29;20443;-82
2021/03/13 05:18:28;;;;;;;1.47;1.07;;;6.90;87.60;7.50;99106.00;;;;4875407;29;20210;-81
2021/03/13 05:20:55;;;;;;;4.50;1.40;;;6.80;87.80;7.50;99109.00;;;;4874130;29;20551;-81
2021/03/13 05:23:24;;;;;;;4.30;1.30;;;6.70;88.20;7.50;99109.00;;;;4889592;29;20508;-84
2021/03/13 05:25:51;;;;;;;2.77;1.30;;;6.80;88.40;7.50;99102.00;;;;4875833;29;20481;-82
2021/03/13 05:28:19;;;;;;;2.00;1.00;;;6.80;88.30;7.60;99092.00;;;;4874579;29;21275;-82
2021/03/13 05:30:46;;;;;;;3.03;1.20;;;6.80;88.00;7.50;99095.00;;;;4880425;29;20437;-82
2021/03/13 05:33:14;;;;;;;3.80;1.40;;;6.90;87.40;7.60;99095.00;;;;4889547;29;21256;-82
2021/03/13 05:35:42;;;;;;;2.40;1.15;;;7.00;86.80;7.60;99071.00;;;;4880410;29;20513;-82
2021/03/13 05:38:09;;;;;;;2.20;1.20;;;7.00;86.10;7.70;99066.00;;;;4879393;29;20476;-82
2021/03/13 05:40:37;;;;;;;2.20;1.00;;;7.10;85.30;7.70;99080.00;;;;4889823;29;20218;-83
2021/03/13 05:43:05;;;;;;;3.00;1.20;;;7.10;85.20;7.70;99063.00;;;;4875458;29;20853;-83
2021/03/13 05:45:33;;;;;;;2.80;1.17;;;7.20;85.30;7.80;99066.00;;;;4909840;29;20223;-82
2021/03/13 05:48:02;;;;;;;2.65;1.10;;;7.20;84.50;217.30;160039.00;;;;4884036;29;20437;-83
2021/03/13 05:50:30;;;;;;;1.67;0.90;;;7.20;84.00;7.80;99047.00;;;;4911282;28;20212;-85
2021/03/13 05:52:59;;;;;;;3.55;1.40;;;7.20;83.90;7.80;99039.00;;;;4898210;29;20432;-82
2021/03/13 05:55:26;;;;;;;4.23;1.00;;;7.30;83.60;7.90;99035.00;;;;4880065;29;20222;-81
2021/03/13 05:57:55;;;;;;;2.47;1.33;;;7.30;83.40;7.90;99010.00;;;;4875386;29;20496;-80
2021/03/13 06:00:23;;;;;;;3.60;1.60;;;7.40;82.80;8.00;99021.00;;;;4878206;29;20283;-80
2021/03/13 06:02:52;;;;;;;3.38;1.30;;;7.40;82.70;52.70;160151.00;;;;4891622;29;20433;-80
2021/03/13 06:05:20;;;;;;;2.40;1.10;;;7.50;82.00;8.10;98969.00;;;;4879828;29;20279;-80
2021/03/13 06:07:47;;;;;;;3.75;1.30;;;7.40;82.20;8.10;98994.00;;;;4891411;29;20555;-82
2021/03/13 06:10:15;;;;;;;5.50;1.40;;;7.50;82.10;8.20;98993.00;;;;4881690;29;20204;-83
2021/03/13 06:12:44;;;;;;;4.30;1.38;;;7.60;81.10;8.30;98967.00;;;;4875648;29;21587;-81
2021/03/13 06:15:13;;;;;;;4.10;1.10;;;7.70;80.90;8.20;98995.00;;;;4891980;29;20307;-82
2021/03/13 06:17:53;;;;;;;4.38;1.30;;;7.60;81.80;8.30;98973.00;;;;4872341;29;20440;-83
2021/03/13 06:20:28;;;;;;;5.03;1.60;;;7.70;82.00;8.30;98961.00;;;;4880422;29;20254;-82
2021/03/13 06:22:56;;;;;;;4.50;1.60;;;7.60;81.30;8.30;98974.00;;;;4877810;29;20468;-84
2021/03/13 06:25:29;;;;;;;5.17;2.00;;;7.60;81.90;8.30;98975.00;;;;4905942;29;20455;-86
2021/03/13 06:28:14;;;;;;;5.85;1.50;;;7.60;81.70;8.30;68087.00;;;;4909247;29;20469;-85
2021/03/13 06:30:46;;;;;;;2.80;1.20;;;7.60;81.70;8.30;98948.00;;;;4895087;29;20175;-83
2021/03/13 06:33:28;;;;;;;5.57;1.60;;;7.60;81.80;8.30;98952.00;;;;4891357;29;20445;-84
2021/03/13 06:35:57;;;;;;;6.07;1.97;;;7.60;81.80;8.40;98951.00;;;;4896461;29;20225;-84
2021/03/13 06:38:27;;;;;;;7.47;1.75;;;7.70;81.70;8.40;98949.00;;;;4913408;29;20420;-87
2021/03/13 06:40:57;;;;;;;7.20;1.60;;;7.80;81.10;8.50;98928.00;;;;4907238;28;20219;-87
2021/03/13 06:43:27;;;;;;;6.47;1.60;;;7.80;80.90;8.50;98948.00;;;;4899389;29;20961;-82
2021/03/13 06:46:03;;;;;;;4.27;1.50;;;7.90;80.50;8.60;98928.00;;;;4890059;29;20318;-81
2021/03/13 06:48:41;;;;;;;5.00;1.90;;;7.90;79.90;8.60;98936.00;;;;4905457;29;20409;-80
2021/03/13 06:51:30;;;;;;;3.17;1.40;;;8.00;79.40;8.60;98937.00;;;;4913485;28;20295;-80
2021/03/13 06:54:09;;;;;;;4.40;1.60;;;7.90;78.50;8.70;98931.00;;;;4912350;28;20444;-81
2021/03/13 06:56:41;;;;;;;6.93;1.80;;;8.00;77.50;8.70;98926.00;;;;4895513;29;20208;-80
2021/03/13 06:59:25;;;;;;;4.32;1.67;;;8.00;77.30;8.80;98919.00;;;;4905817;29;20498;-81
2021/03/13 07:02:05;;;;;;;8.07;1.67;;;8.10;78.00;8.80;98905.00;;;;4898025;29;20306;-82
2021/03/13 07:04:39;;;;;;;6.00;1.40;;;8.10;77.40;9.00;98899.00;;;;4880207;29;20476;-82
2021/03/13 07:07:08;;;;;;;5.57;1.40;;;8.30;76.20;9.10;98916.00;;;;4894227;29;20211;-83
2021/03/13 07:09:55;;;;;;;4.03;1.60;;;8.40;74.20;9.10;98896.00;;;;4876157;29;20469;-83
2021/03/13 07:12:35;;;;;;;2.20;1.10;;;8.50;73.30;9.10;98889.00;;;;4892953;29;20740;-82
2021/03/13 07:15:17;;;;;;;3.47;1.20;;;8.50;71.60;217.30;160662.00;;;;4871067;29;20538;-82
2021/03/13 07:17:50;;;;;;;2.57;1.23;;;8.60;71.10;9.20;98913.00;;;;4878610;29;20214;-82
2021/03/13 07:20:21;;;;;;;4.20;1.40;;;8.60;70.80;9.20;98895.00;;;;4891709;29;20848;-82
2021/03/13 07:22:52;;;;;;;2.60;0.90;;;8.60;71.00;9.20;98886.00;;;;4871565;29;20291;-82
2021/03/13 07:25:22;;;;;;;6.35;2.20;;;8.50;71.40;9.20;98879.00;;;;4891423;29;20464;-81
2021/03/13 07:27:54;;;;;;;8.80;1.83;;;8.50;71.20;217.30;160611.00;;;;4890383;29;20203;-81
2021/03/13 07:30:23;;;;;;;5.35;1.60;;;8.50;72.30;9.10;98899.00;;;;4877001;29;20468;-81
2021/03/13 07:32:56;;;;;;;8.07;1.60;;;8.50;72.70;9.00;98891.00;;;;4875962;29;20307;-82
2021/03/13 07:35:42;;;;;;;4.10;1.40;;;8.30;73.50;9.00;98888.00;;;;4900555;29;20445;-82
2021/03/13 07:38:14;;;;;;;3.23;1.40;;;8.40;73.20;9.00;98847.00;;;;4901115;29;20227;-83
2021/03/13 07:40:46;;;;;;;3.88;1.48;;;8.40;73.80;9.10;98875.00;;;;4895240;29;20443;-81
2021/03/13 07:43:15;;;;;;;5.63;1.50;;;8.50;72.10;9.10;68267.00;;;;4880405;29;20690;-80
2021/03/13 07:45:47;;;;;;;2.38;1.20;;;8.50;71.50;9.10;68279.00;;;;4889990;29;20441;-80
2021/03/13 07:48:16;;;;;;;4.57;1.40;;;8.60;70.40;9.30;98866.00;;;;4889924;29;20773;-81
2021/03/13 07:50:48;;;;;;;3.60;1.10;;;8.70;68.90;9.50;98849.00;;;;4876606;29;20378;-82
2021/03/13 07:53:17;;;;;;;4.15;1.40;;;8.90;67.30;9.70;98848.00;;;;4893648;29;20440;-80
2021/03/13 07:55:51;;;;;;;3.90;1.47;;;9.10;65.10;9.80;98856.00;;;;4894100;29;20215;-81
2021/03/13 07:58:23;;;;;;;4.63;1.35;;;9.10;64.90;10.00;98857.00;;;;4878137;29;20504;-81
2021/03/13 08:00:51;;;;;;;3.30;1.40;;;9.30;64.30;10.20;98840.00;;;;4893535;29;20220;-81
2021/03/13 08:03:48;;;;;;;6.13;1.25;;;9.30;62.80;10.20;98849.00;;;;4904178;29;20582;-83
2021/03/13 08:06:18;;;;;;;2.80;1.37;;;9.50;62.40;10.10;98859.00;;;;4895476;29;20204;-81
2021/03/13 08:08:47;;;;;;;2.40;1.30;;;9.40;61.60;10.00;98847.00;;;;4891291;29;20444;-82
2021/03/13 08:11:16;;;;;;;2.20;1.13;;;9.30;62.10;10.00;98841.00;;;;4880952;29;20259;-84
2021/03/13 08:14:00;;;;;;;4.32;1.30;;;9.20;62.40;52.70;160928.00;;;;4892488;29;20440;-80
2021/03/13 08:16:37;;;;;;;4.13;1.43;;;9.30;61.60;10.00;98838.00;;;;4880231;29;20322;-83
2021/03/13 08:19:33;;;;;;;3.35;1.50;;;9.20;62.10;9.90;98849.00;;;;4888016;29;20527;-81
2021/03/13 08:22:18;;;;;;;3.00;1.37;;;9.20;62.30;9.80;98832.00;;;;4892485;29;20235;-81
2021/03/13 08:24:51;;;;;;;4.82;1.40;;;9.10;63.30;9.80;98827.00;;;;4903293;29;20455;-82
2021/03/13 08:27:38;;;;;;;5.77;1.27;;;9.10;62.90;9.90;98829.00;;;;4912104;29;20210;-83
2021/03/13 08:30:25;;;;;;;3.47;1.30;;;9.10;62.50;9.90;98840.00;;;;4895585;29;20471;-81
2021/03/13 08:33:07;;;;;;;4.03;1.40;;;9.10;62.10;9.90;98825.00;;;;4894732;29;20235;-82
2021/03/13 08:35:47;;;;;;;5.20;1.58;;;9.20;62.70;10.00;98823.00;;;;4879622;29;20464;-81
2021/03/13 08:38:20;;;;;;;2.90;1.43;;;9.20;61.40;10.10;98839.00;;;;4892695;29;20226;-80
2021/03/13 08:40:52;;;;;;;4.57;1.57;;;9.30;60.40;217.30;161067.00;;;;4892625;29;20959;-82
2021/03/13 08:43:36;;;;;;;3.67;1.53;;;9.40;60.20;10.20;98818.00;;;;4894554;29;20825;-81
2021/03/13 08:46:05;;;;;;;3.03;1.52;;;9.40;59.20;10.20;98812.00;;;;4877624;29;20490;-80
2021/03/13 08:49:04;;;;;;;5.27;1.60;;;9.50;57.20;10.30;98829.00;;;;4878908;29;20203;-81
2021/03/13 08:51:33;;;;;;;4.82;1.60;;;9.60;55.70;10.40;98737.00;;;;4823507;29;20512;-81
2021/03/13 08:54:00;;;;;;;3.77;1.13;;;9.70;55.50;10.40;98816.00;;;;4872787;29;20218;-81
2021/03/13 08:56:43;;;;;;;3.70;1.20;;;9.60;55.60;10.40;98785.00;;;;4881875;29;20428;-80
2021/03/13 08:59:19;;;;;;;3.03;1.13;;;9.70;54.20;10.40;98791.00;;;;4900881;29;20665;-82
2021/03/13 09:02:03;;;;;;;4.75;2.00;;;9.70;54.90;10.50;98793.00;;;;4896099;29;20448;-83
2021/03/13 09:04:33;;;;;;;4.68;1.35;;;9.80;53.90;10.60;98732.00;;;;4877297;29;20437;-83
2021/03/13 09:07:03;;;;;;;3.40;1.40;;;9.90;51.20;10.60;98809.00;;;;4882486;29;20938;-81
2021/03/13 09:09:34;;;;;;;4.28;1.40;;;9.90;50.30;10.60;98764.00;;;;4893603;29;21397;-82
2021/03/13 09:12:06;;;;;;;4.78;1.40;;;10.00;49.80;10.60;98798.00;;;;4895565;29;20447;-81
2021/03/13 09:14:35;;;;;;;3.95;1.15;;;10.00;50.40;10.60;98759.00;;;;4902121;29;20477;-82
2021/03/13 09:17:08;;;;;;;5.20;1.20;;;10.00;50.30;10.70;98757.00;;;;4903407;29;20436;-83
2021/03/13 09:19:37;;;;;;;4.47;1.33;;;10.00;49.80;10.70;98774.00;;;;4904198;29;20518;-83
2021/03/13 09:22:09;;;;;;;3.55;1.35;;;10.00;50.30;217.30;161295.00;;;;4904739;29;20523;-81
2021/03/13 09:24:37;;;;;;;2.95;1.27;;;10.00;50.80;10.60;98775.00;;;;4883489;29;20515;-81
2021/03/13 09:27:06;;;;;;;4.50;1.40;;;10.00;50.40;10.50;98756.00;;;;4878674;29;20665;-81
2021/03/13 09:29:37;;;;;;;4.10;1.10;;;9.80;53.30;10.50;98730.00;;;;4878718;29;20942;-82
2021/03/13 09:32:07;;;;;;;2.60;1.10;;;9.80;53.00;10.50;98757.00;;;;4896804;29;20441;-84
2021/03/13 09:34:37;;;;;;;2.30;1.03;;;9.80;53.40;10.50;98739.00;;;;4904771;29;20690;-82
2021/03/13 09:37:12;;;;;;;3.00;1.20;;;9.90;54.20;10.50;98746.00;;;;4891744;29;20440;-84
2021/03/13 09:39:41;;;;;;;4.30;1.30;;;9.90;53.40;10.60;98743.00;;;;4911685;28;20428;-83
2021/03/13 09:42:13;;;;;;;3.00;1.00;;;9.90;53.20;10.50;98738.00;;;;4896463;29;20447;-83
2021/03/13 09:44:44;;;;;;;3.20;1.00;;;9.90;53.80;10.40;98766.00;;;;4902216;28;20431;-84
2021/03/13 09:47:21;;;;;;;3.83;1.38;;;9.70;55.90;10.30;98731.00;;;;4889010;29;20455;-81
2021/03/13 09:49:52;;;;;;;2.90;1.10;;;9.60;57.20;10.20;98740.00;;;;4893436;29;20461;-81
2021/03/13 09:52:27;;;;;;;3.28;1.20;;;9.60;59.10;10.20;98736.00;;;;4895438;29;20445;-84
2021/03/13 09:55:05;;;;;;;2.23;1.10;;;9.50;58.70;10.20;98730.00;;;;4898183;29;20432;-84
2021/03/13 09:57:33;;;;;;;2.23;1.27;;;9.60;60.00;10.20;98711.00;;;;4916413;28;20489;-82
2021/03/13 10:00:03;;;;;;;2.90;1.30;;;9.60;59.30;10.20;68527.00;;;;4899457;29;20972;-82
2021/03/13 10:02:32;;;;;;;3.00;1.00;;;9.60;59.60;217.30;161039.00;;;;4882725;29;20435;-83
2021/03/13 10:05:05;;;;;;;3.00;1.00;;;9.50;60.70;10.10;68490.00;;;;4893302;29;20440;-80
2021/03/13 10:07:39;;;;;;;3.67;1.20;;;9.50;61.10;10.00;98685.00;;;;4897533;29;20429;-83
2021/03/13 10:10:09;;;;;;;2.88;0.90;;;9.40;61.60;9.90;98717.00;;;;4898613;29;21579;-83
2021/03/13 10:12:43;;;;;;;3.33;1.20;;;9.40;61.60;9.90;98719.00;;;;4883247;29;20437;-82
2021/03/13 10:15:23;;;;;;;3.25;1.00;;;9.50;62.30;10.00;98717.00;;;;4890867;29;20417;-83
2021/03/13 10:18:09;;;;;;;2.70;1.00;;;9.60;62.00;10.00;98741.00;;;;5130387;27;20409;-80
2021/03/13 10:20:39;;;;;;;2.85;0.93;;;9.60;59.80;10.00;98699.00;;;;5110001;28;20439;-82
2021/03/13 10:23:09;;;;;;;2.13;0.90;;;9.50;60.10;10.10;98709.00;;;;5131862;28;20435;-83
2021/03/13 10:25:40;;;;;;;3.30;0.80;;;9.50;58.80;10.10;98698.00;;;;5068378;28;20472;-82
2021/03/13 10:28:11;;;;;;;2.08;0.90;;;9.60;59.50;10.10;98688.00;;;;5058987;28;20475;-83
2021/03/13 10:30:42;;;;;;;2.05;0.90;;;9.60;60.20;10.20;98694.00;;;;5087291;28;20428;-83
2021/03/13 10:33:11;;;;;;;3.53;1.00;;;9.60;62.20;10.00;98713.00;;;;5065251;28;20421;-84
2021/03/13 10:35:39;;;;;;;3.00;1.20;;;9.50;63.10;9.90;98704.00;;;;5078226;28;20425;-84
2021/03/13 10:38:18;;;;;;;3.20;1.00;;;9.30;66.30;217.30;160868.00;;;;5088414;28;20424;-84
2021/03/13 10:40:49;;;;;;;1.80;0.90;;;9.00;70.30;9.50;98737.00;;;;5121884;28;20435;-84
2021/03/13 10:43:22;;;;;;;2.97;1.20;;;8.80;73.10;9.40;98759.00;;;;5128432;27;20426;-84
2021/03/13 10:46:19;;;;;;;2.70;1.38;;;8.60;76.40;9.20;98788.00;;;;5098037;28;20421;-87
2021/03/13 10:49:06;;;;;;;4.45;1.10;;;8.50;78.60;9.20;98797.00;;;;5070436;28;20503;-89
2021/03/13 10:51:41;;;;;;;3.40;1.10;;;8.50;81.20;9.10;68272.00;;;;5127986;27;20415;-86
2021/03/13 10:54:21;;;;;;;2.30;1.00;;;8.40;81.00;217.30;160557.00;;;;5121762;27;20416;-87
2021/03/13 10:56:50;;;;;;;1.70;1.00;;;8.30;80.80;8.80;98747.00;;;;5106323;28;20457;-83
2021/03/13 10:59:27;;;;;;;3.33;1.20;;;8.00;82.20;8.70;98784.00;;;;5099170;28;20429;-85
2021/03/13 11:01:55;;;;;;;2.20;1.10;;;7.90;83.90;9.00;98811.00;;;;5108575;28;20407;-87
2021/03/13 11:04:23;;;;;;;3.80;1.00;;;8.10;85.20;9.00;98822.00;;;;5106876;28;20421;-86
2021/03/13 11:06:54;;;;;;;1.40;0.90;;;8.10;79.90;9.00;98820.00;;;;5102464;28;20419;-81
2021/03/13 11:09:23;;;;;;;1.60;0.80;;;8.00;78.60;9.10;98823.00;;;;5138899;27;20423;-84
2021/03/13 11:11:51;;;;;;;2.67;1.00;;;8.10;78.20;9.10;98839.00;;;;5139743;27;20419;-85
2021/03/13 11:14:19;;;;;;;1.48;0.82;;;8.10;80.50;9.00;98824.00;;;;5103973;28;20418;-84
2021/03/13 11:16:47;;;;;;;2.03;1.10;;;8.20;81.30;8.70;98864.00;;;;5119126;28;20448;-85
2021/03/13 11:19:15;;;;;;;1.70;0.90;;;7.90;79.70;8.60;98866.00;;;;5139856;27;20411;-84
2021/03/13 11:21:43;;;;;;;3.80;0.90;;;7.70;79.50;8.30;68104.00;;;;5106607;28;20428;-85
2021/03/13 11:24:12;;;;;;;2.35;1.00;;;7.50;80.60;8.10;98853.00;;;;5109292;28;20471;-85
2021/03/13 11:26:39;;;;;;;2.40;0.80;;;7.20;79.60;8.00;98876.00;;;;5139877;27;20454;-84
2021/03/13 11:29:07;;;;;;;2.00;0.70;;;7.10;79.50;7.90;98881.00;;;;5098930;28;20400;-86